createdAt,value
2018-01-15T00:01:31.619Z,3.43
2018-01-15T00:04:00.869Z,3.45
2018-01-15T00:06:30.084Z,3.43
2018-01-15T00:08:59.311Z,3.47
2018-01-15T00:11:28.577Z,3.42
2018-01-15T00:13:57.783Z,3.43
2018-01-15T00:16:27.005Z,3.44
2018-01-15T00:18:56.218Z,3.45
2018-01-15T00:21:26.220Z,3.50
2018-01-15T00:23:56.302Z,3.49
2018-01-15T00:26:25.503Z,3.47
2018-01-15T00:28:54.699Z,3.51
2018-01-15T00:31:23.936Z,3.49
2018-01-15T00:33:53.175Z,3.49
2018-01-15T00:36:22.394Z,3.46
2018-01-15T00:38:51.628Z,3.41
2018-01-15T00:41:20.851Z,3.40
2018-01-15T00:43:50.849Z,3.39
2018-01-15T00:46:20.834Z,3.40
2018-01-15T00:48:50.039Z,3.37
2018-01-15T00:51:19.272Z,3.37
2018-01-15T00:53:50.078Z,3.43
2018-01-15T00:56:19.345Z,3.45
2018-01-15T00:58:48.606Z,3.52
2018-01-15T01:01:18.642Z,3.50
2018-01-15T01:03:48.000Z,3.53
2018-01-15T01:06:17.210Z,3.56
2018-01-15T01:08:46.451Z,3.56
2018-01-15T01:11:15.683Z,3.60
2018-01-15T01:13:44.913Z,3.63
2018-01-15T01:16:14.907Z,3.63
2018-01-15T01:18:44.335Z,3.60
2018-01-15T01:21:14.321Z,3.61
2018-01-15T01:23:43.556Z,3.57
2018-01-15T01:26:13.613Z,3.58
2018-01-15T01:28:42.821Z,3.57
2018-01-15T01:31:12.205Z,3.57
2018-01-15T01:33:41.401Z,3.60
2018-01-15T01:36:10.628Z,3.61
2018-01-15T01:38:39.972Z,3.62
2018-01-15T01:41:09.970Z,3.61
2018-01-15T01:43:40.629Z,3.61
2018-01-15T01:46:09.938Z,3.63
2018-01-15T01:48:39.215Z,3.64
2018-01-15T01:51:08.462Z,3.65
2018-01-15T01:53:37.674Z,3.64
2018-01-15T01:56:07.342Z,3.65
2018-01-15T01:58:36.612Z,3.63
2018-01-15T02:01:06.590Z,3.60
2018-01-15T02:03:35.866Z,3.57
2018-01-15T02:06:05.095Z,3.53
2018-01-15T02:08:34.363Z,3.54
2018-01-15T02:11:03.594Z,3.55
2018-01-15T02:13:32.869Z,3.52
2018-01-15T02:16:02.245Z,3.53
2018-01-15T02:18:31.447Z,3.54
2018-01-15T02:21:00.690Z,3.53
2018-01-15T02:23:30.779Z,3.56
2018-01-15T02:26:00.012Z,3.53
2018-01-15T02:28:29.251Z,3.48
2018-01-15T02:30:58.514Z,3.46
2018-01-15T02:33:27.747Z,3.50
2018-01-15T02:35:56.991Z,3.48
2018-01-15T02:38:26.202Z,3.47
2018-01-15T02:40:55.433Z,3.48
2018-01-15T02:43:24.643Z,3.45
2018-01-15T02:45:53.844Z,3.42
2018-01-15T02:48:23.068Z,3.40
2018-01-15T02:50:52.536Z,3.43
2018-01-15T02:53:21.757Z,3.42
2018-01-15T02:55:50.959Z,3.42
2018-01-15T02:58:20.239Z,3.42
2018-01-15T03:00:49.506Z,3.45
2018-01-15T03:03:19.494Z,3.52
2018-01-15T03:05:48.711Z,3.52
2018-01-15T03:08:17.998Z,3.54
2018-01-15T03:10:47.203Z,3.57
2018-01-15T03:13:16.412Z,3.62
2018-01-15T03:15:45.613Z,3.66
2018-01-15T03:18:15.582Z,3.70
2018-01-15T03:20:44.802Z,3.75
2018-01-15T03:23:14.016Z,3.75
2018-01-15T03:25:43.250Z,3.76
2018-01-15T03:28:12.470Z,3.80
2018-01-15T03:30:41.690Z,3.80
2018-01-15T03:33:10.898Z,3.88
2018-01-15T03:35:40.169Z,3.89
2018-01-15T03:38:09.361Z,3.95
2018-01-15T03:40:38.806Z,3.96
2018-01-15T03:43:08.793Z,3.97
2018-01-15T03:45:38.012Z,4.01
2018-01-15T03:48:07.235Z,4.04
2018-01-15T03:50:36.458Z,4.04
2018-01-15T03:53:05.699Z,4.09
2018-01-15T03:55:36.408Z,4.07
2018-01-15T03:58:05.640Z,4.11
2018-01-15T04:00:35.631Z,4.16
2018-01-15T04:03:06.471Z,4.23
2018-01-15T04:05:36.602Z,4.31
2018-01-15T04:08:05.848Z,4.38
2018-01-15T04:10:35.078Z,4.39
2018-01-15T04:13:04.333Z,4.45
2018-01-15T04:15:33.592Z,4.44
2018-01-15T04:18:02.788Z,4.40
2018-01-15T04:20:32.012Z,4.43
2018-01-15T04:23:02.010Z,4.48
2018-01-15T04:25:31.227Z,4.51
2018-01-15T04:28:00.570Z,4.56
2018-01-15T04:30:29.884Z,4.51
2018-01-15T04:32:59.091Z,4.43
2018-01-15T04:35:28.339Z,4.39
2018-01-15T04:37:57.562Z,4.45
2018-01-15T04:40:26.779Z,4.49
2018-01-15T04:42:56.266Z,4.44
2018-01-15T04:45:25.502Z,4.38
2018-01-15T04:47:54.706Z,4.38
2018-01-15T04:50:24.751Z,4.32
2018-01-15T04:52:53.951Z,4.35
2018-01-15T04:55:23.185Z,4.36
2018-01-15T04:57:52.447Z,4.33
2018-01-15T05:00:21.721Z,4.34
2018-01-15T05:02:50.927Z,4.35
2018-01-15T05:05:20.165Z,4.37
2018-01-15T05:07:49.373Z,4.37
2018-01-15T05:10:18.582Z,4.43
2018-01-15T05:12:47.826Z,4.47
2018-01-15T05:15:17.918Z,4.43
2018-01-15T05:17:47.142Z,4.47
2018-01-15T05:20:16.345Z,4.47
2018-01-15T05:22:45.827Z,4.53
2018-01-15T05:25:15.821Z,4.55
2018-01-15T05:27:46.714Z,4.50
2018-01-15T05:30:15.962Z,4.54
2018-01-15T05:32:45.181Z,4.57
2018-01-15T05:35:14.607Z,4.57
2018-01-15T05:37:43.814Z,4.64
2018-01-15T05:40:13.059Z,4.65
2018-01-15T05:42:42.251Z,4.68
2018-01-15T05:45:12.264Z,4.69
2018-01-15T05:47:41.466Z,4.73
2018-01-15T05:50:10.713Z,4.73
2018-01-15T05:52:39.904Z,4.75
2018-01-15T05:55:09.114Z,4.77
2018-01-15T05:57:38.352Z,4.78
2018-01-15T06:00:07.554Z,4.79
2018-01-15T06:02:36.763Z,4.77
2018-01-15T06:05:08.451Z,4.82
2018-01-15T06:07:37.678Z,4.75
2018-01-15T06:10:06.879Z,4.86
2018-01-15T06:12:36.223Z,4.84
2018-01-15T06:15:06.200Z,4.86
2018-01-15T06:17:35.427Z,4.84
2018-01-15T06:20:05.554Z,4.90
2018-01-15T06:22:35.595Z,4.83
2018-01-15T06:25:04.814Z,4.88
2018-01-15T06:27:34.052Z,4.94
2018-01-15T06:30:04.030Z,4.98
2018-01-15T06:32:33.245Z,5.02
2018-01-15T06:35:02.625Z,5.00
2018-01-15T06:37:31.817Z,5.01
2018-01-15T06:40:01.031Z,5.05
2018-01-15T06:42:31.172Z,5.06
2018-01-15T06:45:00.338Z,5.02
2018-01-15T06:47:29.567Z,4.99
2018-01-15T06:49:58.910Z,4.97
2018-01-15T06:52:28.086Z,4.97
2018-01-15T06:54:58.066Z,5.03
2018-01-15T06:57:27.262Z,5.03
2018-01-15T06:59:56.574Z,5.06
2018-01-15T07:02:25.793Z,5.10
2018-01-15T07:04:55.782Z,5.12
2018-01-15T07:07:25.181Z,5.15
2018-01-15T07:09:54.431Z,5.19
2018-01-15T07:12:23.745Z,5.20
2018-01-15T07:14:52.984Z,5.23
2018-01-15T07:17:23.680Z,5.29
2018-01-15T07:19:52.928Z,5.33
2018-01-15T07:22:22.116Z,5.30
2018-01-15T07:24:51.385Z,5.31
2018-01-15T07:27:20.578Z,5.32
2018-01-15T07:29:49.807Z,5.36
2018-01-15T07:32:19.027Z,5.39
2018-01-15T07:34:49.035Z,5.44
2018-01-15T07:37:18.999Z,5.45
2018-01-15T07:39:49.082Z,5.45
2018-01-15T07:42:19.092Z,5.47
2018-01-15T07:44:49.090Z,5.42
2018-01-15T07:47:18.334Z,5.41
2018-01-15T07:49:48.283Z,5.45
2018-01-15T07:52:17.513Z,5.48
2018-01-15T07:54:46.739Z,5.51
2018-01-15T07:57:15.954Z,5.50
2018-01-15T07:59:45.163Z,5.57
2018-01-15T08:02:14.405Z,5.59
2018-01-15T08:04:43.605Z,5.61
2018-01-15T08:07:12.992Z,5.67
2018-01-15T08:09:42.239Z,5.69
2018-01-15T08:12:11.453Z,5.70
2018-01-15T08:14:40.939Z,5.70
2018-01-15T08:17:10.143Z,5.70
2018-01-15T08:19:41.939Z,5.70
2018-01-15T08:22:11.151Z,5.73
2018-01-15T08:24:41.110Z,5.79
2018-01-15T08:27:10.314Z,5.85
2018-01-15T08:29:39.537Z,5.88
2018-01-15T08:32:08.779Z,5.94
2018-01-15T08:34:39.231Z,5.98
2018-01-15T08:37:08.541Z,6.04
2018-01-15T08:39:37.741Z,6.14
2018-01-15T08:42:06.972Z,6.20
2018-01-15T08:44:36.175Z,6.18
2018-01-15T08:47:05.587Z,6.23
2018-01-15T08:49:34.961Z,6.26
2018-01-15T08:52:04.161Z,6.27
2018-01-15T08:54:33.406Z,6.36
2018-01-15T08:57:03.419Z,6.38
2018-01-15T08:59:32.627Z,6.42
2018-01-15T09:02:01.838Z,6.45
2018-01-15T09:04:31.074Z,6.50
2018-01-15T09:07:00.310Z,6.52
2018-01-15T09:09:30.281Z,6.50
2018-01-15T09:11:59.481Z,6.51
2018-01-15T09:14:28.754Z,6.52
2018-01-15T09:16:57.980Z,6.55
2018-01-15T09:19:27.201Z,6.53
2018-01-15T09:21:56.417Z,6.54
2018-01-15T09:24:25.641Z,6.55
2018-01-15T09:26:55.682Z,6.57
2018-01-15T09:29:24.882Z,6.61
2018-01-15T09:31:54.118Z,6.66
2018-01-15T09:34:24.136Z,6.68
2018-01-15T09:36:53.351Z,6.72
2018-01-15T09:39:22.557Z,6.71
2018-01-15T09:41:51.771Z,6.71
2018-01-15T09:44:20.990Z,6.78
2018-01-15T09:46:50.180Z,6.78
2018-01-15T09:49:19.425Z,6.79
2018-01-15T09:51:49.381Z,6.83
2018-01-15T09:54:18.594Z,6.82
2018-01-15T09:56:47.777Z,6.84
2018-01-15T09:59:17.051Z,6.88
2018-01-15T10:01:46.241Z,6.92
2018-01-15T10:04:15.502Z,6.96
2018-01-15T10:06:44.710Z,7.03
2018-01-15T10:09:14.924Z,7.08
2018-01-15T10:11:45.004Z,7.15
2018-01-15T10:14:14.186Z,7.14
2018-01-15T10:16:43.423Z,7.16
2018-01-15T10:19:12.621Z,7.19
2018-01-15T10:21:43.323Z,7.27
2018-01-15T10:24:12.638Z,7.32
2018-01-15T10:26:41.822Z,7.39
2018-01-15T10:29:11.107Z,7.47
2018-01-15T10:31:40.411Z,7.51
2018-01-15T10:34:09.611Z,7.59
2018-01-15T10:36:38.837Z,7.63
2018-01-15T10:39:08.076Z,7.62
2018-01-15T10:41:37.274Z,7.65
2018-01-15T10:44:06.515Z,7.66
2018-01-15T10:46:35.730Z,7.66
2018-01-15T10:49:05.016Z,7.66
2018-01-15T10:51:34.216Z,7.66
2018-01-15T10:54:03.456Z,7.65
2018-01-15T10:56:33.444Z,7.63
2018-01-15T10:59:02.625Z,7.65
2018-01-15T11:01:31.865Z,7.68
2018-01-15T11:04:01.100Z,7.72
2018-01-15T11:06:30.378Z,7.77
2018-01-15T11:09:00.324Z,7.72
2018-01-15T11:11:29.591Z,7.73
2018-01-15T11:13:58.802Z,7.75
2018-01-15T11:16:28.035Z,7.81
2018-01-15T11:18:57.231Z,7.87
2018-01-15T11:21:26.428Z,7.93
2018-01-15T11:23:55.668Z,7.95
2018-01-15T11:26:25.119Z,7.94
2018-01-15T11:28:54.378Z,8.03
2018-01-15T11:31:23.618Z,8.00
2018-01-15T11:33:52.873Z,7.98
2018-01-15T11:36:22.062Z,8.01
2018-01-15T11:38:52.075Z,8.04
2018-01-15T11:41:22.940Z,8.03
2018-01-15T11:43:52.172Z,8.05
2018-01-15T11:46:21.368Z,8.09
2018-01-15T11:48:50.581Z,8.17
2018-01-15T11:51:19.795Z,8.18
2018-01-15T11:53:49.774Z,8.21
2018-01-15T11:56:19.033Z,8.22
2018-01-15T11:58:48.278Z,8.17
2018-01-15T12:01:17.486Z,8.16
2018-01-15T12:03:46.717Z,8.19
2018-01-15T12:06:16.698Z,8.18
2018-01-15T12:08:45.924Z,8.22
2018-01-15T12:11:15.152Z,8.23
2018-01-15T12:13:44.374Z,8.16
2018-01-15T12:16:13.785Z,8.12
2018-01-15T12:18:43.035Z,8.13
2018-01-15T12:21:12.379Z,8.12
2018-01-15T12:23:41.556Z,8.15
2018-01-15T12:26:10.782Z,8.19
2018-01-15T12:28:41.484Z,8.16
2018-01-15T12:31:10.683Z,8.12
2018-01-15T12:33:40.538Z,8.13
2018-01-15T12:36:09.763Z,8.06
2018-01-15T12:38:39.854Z,8.01
2018-01-15T12:41:09.904Z,7.98
2018-01-15T12:43:40.520Z,7.94
2018-01-15T12:46:10.493Z,7.91
2018-01-15T12:48:39.706Z,7.90
2018-01-15T12:51:09.710Z,7.94
2018-01-15T12:53:39.354Z,7.93
2018-01-15T12:56:09.317Z,7.91
2018-01-15T12:58:38.531Z,7.91
2018-01-15T13:01:09.245Z,7.86
2018-01-15T13:03:39.087Z,7.82
2018-01-15T13:06:08.302Z,7.80
2018-01-15T13:22:08.334Z,7.87
2018-01-15T13:24:37.591Z,7.91
2018-01-15T13:27:06.796Z,7.96
2018-01-15T13:29:35.983Z,7.96
2018-01-15T13:32:05.177Z,7.96
2018-01-15T13:34:35.199Z,7.91
2018-01-15T13:37:04.422Z,7.92
2018-01-15T13:39:33.650Z,7.87
2018-01-15T13:42:02.869Z,7.89
2018-01-15T13:44:32.078Z,7.89
2018-01-15T13:47:01.293Z,7.91
2018-01-15T13:49:30.507Z,7.90
2018-01-15T13:52:00.573Z,7.90
2018-01-15T13:54:29.761Z,7.87
2018-01-15T13:56:58.990Z,7.88
2018-01-15T13:59:28.249Z,7.84
2018-01-15T14:01:58.220Z,7.85
2018-01-15T14:04:28.259Z,7.81
2018-01-15T14:06:57.495Z,7.83
2018-01-15T14:09:26.731Z,7.79
2018-01-15T14:11:56.726Z,7.78
2018-01-15T14:14:25.938Z,7.78
2018-01-15T14:16:55.969Z,7.76
2018-01-15T14:19:25.215Z,7.71
2018-01-15T14:21:54.454Z,7.64
2018-01-15T14:24:24.435Z,7.65
2018-01-15T14:26:53.650Z,7.58
2018-01-15T14:29:22.878Z,7.53
2018-01-15T14:31:52.835Z,7.48
2018-01-15T14:34:22.070Z,7.46
2018-01-15T14:36:51.265Z,7.36
2018-01-15T14:39:20.482Z,7.26
2018-01-15T14:41:50.440Z,7.21
2018-01-15T14:44:19.774Z,7.16
2018-01-15T14:46:48.947Z,7.10
2018-01-15T14:49:18.409Z,7.06
2018-01-15T14:51:48.521Z,6.96
2018-01-15T14:54:17.794Z,6.93
2018-01-15T14:56:47.047Z,6.89
2018-01-15T14:59:16.274Z,6.85
2018-01-15T15:01:45.467Z,6.79
2018-01-15T15:04:14.735Z,6.76
2018-01-15T15:06:43.942Z,6.72
2018-01-15T15:09:13.148Z,6.70
2018-01-15T15:11:42.363Z,6.69
2018-01-15T15:14:11.594Z,6.67
2018-01-15T15:16:41.595Z,6.63
2018-01-15T15:19:10.850Z,6.59
2018-01-15T15:21:40.075Z,6.62
2018-01-15T15:24:09.280Z,6.62
2018-01-15T15:26:38.527Z,6.53
2018-01-15T15:29:07.725Z,6.49
2018-01-15T15:31:37.021Z,6.49
2018-01-15T15:34:07.041Z,6.48
2018-01-15T15:36:36.251Z,6.47
2018-01-15T15:39:05.454Z,6.48
2018-01-15T15:41:35.317Z,6.48
2018-01-15T15:44:05.364Z,6.46
2018-01-15T15:46:34.728Z,6.45
2018-01-15T15:49:04.194Z,6.41
2018-01-15T15:51:33.509Z,6.40
2018-01-15T15:54:02.933Z,6.40
2018-01-15T15:56:32.206Z,6.36
2018-01-15T15:59:01.380Z,6.33
2018-01-15T16:01:30.568Z,6.32
2018-01-15T16:03:59.808Z,6.30
2018-01-15T16:06:29.019Z,6.30
2018-01-15T16:08:58.224Z,6.29
2018-01-15T16:11:28.226Z,6.26
2018-01-15T16:13:57.587Z,6.27
2018-01-15T16:16:27.612Z,6.29
2018-01-15T16:18:56.819Z,6.31
2018-01-15T16:21:26.006Z,6.28
2018-01-15T16:23:55.311Z,6.26
2018-01-15T16:26:24.538Z,6.30
2018-01-15T16:28:53.815Z,6.35
2018-01-15T16:31:23.075Z,6.29
2018-01-15T16:33:52.239Z,6.29
2018-01-15T16:36:22.247Z,6.32
2018-01-15T16:38:51.508Z,6.32
2018-01-15T16:41:20.755Z,6.33
2018-01-15T16:43:49.954Z,6.35
2018-01-15T16:46:19.214Z,6.34
2018-01-15T16:48:48.421Z,6.35
2018-01-15T16:51:17.676Z,6.39
2018-01-15T16:53:46.934Z,6.38
2018-01-15T16:56:16.142Z,6.36
2018-01-15T16:58:46.123Z,6.32
2018-01-15T17:01:15.370Z,6.32
2018-01-15T17:03:45.336Z,6.31
2018-01-15T17:06:14.701Z,6.32
2018-01-15T17:08:43.942Z,6.30
2018-01-15T17:11:13.292Z,6.31
2018-01-15T17:13:43.467Z,6.35
2018-01-15T17:16:12.894Z,6.36
2018-01-15T17:18:42.178Z,6.38
2018-01-15T17:21:11.470Z,6.38
2018-01-15T17:23:41.508Z,6.39
2018-01-15T17:26:10.863Z,6.38
2018-01-15T17:28:40.086Z,6.37
2018-01-15T17:31:09.281Z,6.33
2018-01-15T17:33:38.677Z,6.33
2018-01-15T17:36:08.575Z,6.32
2018-01-15T17:38:37.833Z,6.30
2018-01-15T17:41:07.893Z,6.27
2018-01-15T17:43:37.162Z,6.26
2018-01-15T17:46:07.138Z,6.22
2018-01-15T17:48:36.351Z,6.26
2018-01-15T17:51:06.320Z,6.20
2018-01-15T17:53:35.606Z,6.18
2018-01-15T17:56:04.840Z,6.17
2018-01-15T17:58:34.055Z,6.18
2018-01-15T18:01:03.275Z,6.15
2018-01-15T18:03:32.570Z,6.14
2018-01-15T18:06:02.557Z,6.14
2018-01-15T18:08:31.827Z,6.14
2018-01-15T18:11:01.084Z,6.12
2018-01-15T18:13:31.127Z,6.09
2018-01-15T18:16:01.088Z,6.06
2018-01-15T18:18:32.024Z,6.01
2018-01-15T18:21:02.067Z,6.01
2018-01-15T18:23:32.195Z,6.04
2018-01-15T18:26:02.266Z,6.06
2018-01-15T18:28:31.458Z,6.01
2018-01-15T18:31:01.725Z,6.04
2018-01-15T18:33:30.952Z,6.00
2018-01-15T18:36:00.230Z,6.04
2018-01-15T18:38:30.968Z,6.09
2018-01-15T18:41:00.223Z,6.08
2018-01-15T18:43:29.426Z,6.07
2018-01-15T18:45:58.672Z,6.06
2018-01-15T18:48:28.618Z,6.09
2018-01-15T18:50:57.842Z,6.07
2018-01-15T18:53:27.791Z,6.09
2018-01-15T18:55:57.057Z,6.11
2018-01-15T18:58:26.344Z,6.11
2018-01-15T19:00:55.612Z,6.08
2018-01-15T19:03:24.922Z,6.07
2018-01-15T19:05:54.147Z,6.04
2018-01-15T19:08:23.410Z,6.08
2018-01-15T19:10:53.430Z,6.06
2018-01-15T19:13:22.681Z,6.06
2018-01-15T19:15:52.652Z,6.10
2018-01-15T19:18:23.360Z,6.10
2018-01-15T19:20:54.363Z,6.13
2018-01-15T19:23:24.393Z,6.11
2018-01-15T19:25:54.388Z,6.13
2018-01-15T19:28:23.782Z,6.12
2018-01-15T19:30:53.021Z,6.12
2018-01-15T19:33:22.219Z,6.14
2018-01-15T19:49:26.636Z,6.25
2018-01-15T19:52:01.356Z,6.27
2018-01-15T19:54:35.919Z,6.31
2018-01-15T19:57:10.677Z,6.33
2018-01-15T19:59:45.641Z,6.36
2018-01-15T20:02:20.215Z,6.38
2018-01-15T20:04:54.704Z,6.39
2018-01-15T20:07:29.233Z,6.37
2018-01-15T20:10:03.850Z,6.38
2018-01-15T20:12:33.059Z,6.40
2018-01-15T20:15:02.286Z,6.38
2018-01-15T20:17:32.290Z,6.40
2018-01-15T20:20:01.518Z,6.41
2018-01-15T20:22:31.518Z,6.43
2018-01-15T20:25:00.702Z,6.41
2018-01-15T20:27:31.488Z,6.43
2018-01-15T20:30:00.700Z,6.43
2018-01-15T20:32:29.938Z,6.43
2018-01-15T20:35:00.044Z,6.42
2018-01-15T20:37:29.344Z,6.43
2018-01-15T20:39:58.602Z,6.42
2018-01-15T20:42:27.865Z,6.44
2018-01-15T20:44:58.545Z,6.44
2018-01-15T20:47:27.770Z,6.43
2018-01-15T20:49:56.991Z,6.42
2018-01-15T20:52:26.983Z,6.44
2018-01-15T20:54:56.167Z,6.42
2018-01-15T20:57:27.076Z,6.44
2018-01-15T20:59:56.303Z,6.41
2018-01-15T21:02:25.566Z,6.43
2018-01-15T21:04:55.680Z,6.44
2018-01-15T21:07:25.637Z,6.45
2018-01-15T21:09:54.830Z,6.46
2018-01-15T21:12:24.057Z,6.48
2018-01-15T21:14:53.277Z,6.53
2018-01-15T21:17:23.226Z,6.54
2018-01-15T21:19:52.456Z,6.56
2018-01-15T21:22:21.697Z,6.58
2018-01-15T21:24:50.915Z,6.57
2018-01-15T21:27:20.127Z,6.57
2018-01-15T21:29:49.419Z,6.58
2018-01-15T21:32:18.623Z,6.59
2018-01-15T21:34:47.811Z,6.55
2018-01-15T21:37:17.050Z,6.52
2018-01-15T21:39:46.235Z,6.51
2018-01-15T21:42:15.521Z,6.51
2018-01-15T21:44:44.707Z,6.51
2018-01-15T21:47:13.922Z,6.49
2018-01-15T21:49:43.121Z,6.44
2018-01-15T21:52:13.207Z,6.40
2018-01-15T21:54:42.425Z,6.35
2018-01-15T21:57:11.633Z,6.31
2018-01-15T21:59:40.833Z,6.30
2018-01-15T22:02:10.172Z,6.27
2018-01-15T22:04:40.123Z,6.23
2018-01-15T22:07:09.326Z,6.20
2018-01-15T22:09:38.522Z,6.20
2018-01-15T22:12:07.862Z,6.21
2018-01-15T22:14:37.044Z,6.23
2018-01-15T22:17:06.254Z,6.24
2018-01-15T22:19:35.498Z,6.25
2018-01-15T22:22:04.779Z,6.28
2018-01-15T22:24:34.175Z,6.30
2018-01-15T22:27:04.163Z,6.33
2018-01-15T22:29:33.388Z,6.33
2018-01-15T22:32:03.354Z,6.33
2018-01-15T22:34:32.586Z,6.40
2018-01-15T22:37:02.678Z,6.45
2018-01-15T22:39:32.229Z,6.47
2018-01-15T22:42:01.608Z,6.54
2018-01-15T22:44:30.878Z,6.60
2018-01-15T22:47:00.698Z,6.62
2018-01-15T22:49:29.978Z,6.65
2018-01-15T22:51:59.198Z,6.69
2018-01-15T22:54:28.451Z,6.75
2018-01-15T22:56:58.506Z,6.75
2018-01-15T22:59:27.943Z,6.73
2018-01-15T23:01:57.157Z,6.76
2018-01-15T23:04:26.380Z,6.79
2018-01-15T23:06:55.603Z,6.86
2018-01-15T23:09:24.844Z,6.86
2018-01-15T23:11:54.039Z,6.86
2018-01-15T23:14:23.886Z,6.90
2018-01-15T23:16:53.103Z,6.93
2018-01-15T23:19:22.379Z,6.94
2018-01-15T23:21:51.810Z,6.96
2018-01-15T23:24:21.175Z,6.99
2018-01-15T23:26:50.405Z,7.01
2018-01-15T23:29:19.602Z,7.05
2018-01-15T23:31:48.856Z,7.10
2018-01-15T23:34:18.044Z,7.10
2018-01-15T23:36:47.254Z,7.11
2018-01-15T23:39:16.469Z,7.12
2018-01-15T23:41:45.686Z,7.15
2018-01-15T23:44:15.050Z,7.13
2018-01-15T23:46:44.362Z,7.11
2018-01-15T23:49:14.334Z,7.16
2018-01-15T23:51:43.660Z,7.19
2018-01-15T23:54:31.183Z,7.21
2018-01-15T23:57:01.154Z,7.23
2018-01-15T23:59:30.498Z,7.25
